ENSH Airport Information

Runway Information
Runway 01 Length 2812 ft width 0 ft
Elevation 27 ft Threshold 0 ft Heading 0
Runway 19 Length 2812 ft Width 0 ft
Elevation 11 ft Threshold 0 ft Heading 0
Airport Frequencies
Airport Navaids
Type NDB Name Helle Frequency 259 KHZ
Type NDB Name Skrova Frequency 300 KHZ
Airport Weather Information & NOTAM
ADDS - METARS form results

(0806 UTC 15 December 2018)
Data provider http://aviationweather.gov/metar/data/
 
METAR text: ENSH 150750Z 19015KT 9999 BKN030 05/M00 Q1027 RMK WIND 150FT 18016KT
Conditions at: ENSH (SVOLVAER/HELLE , NO) observed 0750 UTC 15 December 2018
Temperature: 5.0°C (41°F)
Dewpoint: 0.0°C (32°F) [RH = 70%]
Pressure (altimeter): 30.32 inches Hg (1027.0 mb)
Winds: from the S (190 degrees) at 17 MPH (15 knots; 7.7 m/s)
Visibility: 6 or more miles (10+ km)
Ceiling: 3000 feet AGL
Clouds: broken clouds at 3000 feet AGL
Weather: no significant weather observed at this time

METAR text: ENSH 150720Z 19017KT 9999 BKN030 05/M00 Q1027 RMK WIND 150FT 18016KT
Conditions at: ENSH (SVOLVAER/HELLE , NO) observed 0720 UTC 15 December 2018
Temperature: 5.0°C (41°F)
Dewpoint: 0.0°C (32°F) [RH = 70%]
Pressure (altimeter): 30.32 inches Hg (1027.0 mb)
Winds: from the S (190 degrees) at 20 MPH (17 knots; 8.7 m/s)
Visibility: 6 or more miles (10+ km)
Ceiling: 3000 feet AGL
Clouds: broken clouds at 3000 feet AGL
Weather: no significant weather observed at this time